createdAt,value
2023-04-13T00:01:09.386Z,75.63
2023-04-13T00:03:36.327Z,76.23
2023-04-13T00:06:03.396Z,76.48
2023-04-13T00:08:30.787Z,78.29
2023-04-13T00:10:57.459Z,77.93
2023-04-13T00:13:26.822Z,77.06
2023-04-13T00:15:53.917Z,75.79
2023-04-13T00:18:20.837Z,75.80
2023-04-13T00:20:50.433Z,75.65
2023-04-13T00:23:19.601Z,76.48
2023-04-13T00:25:50.045Z,75.00
2023-04-13T00:28:19.900Z,74.68
2023-04-13T00:30:49.955Z,74.96
2023-04-13T00:33:17.525Z,75.49
2023-04-13T00:35:44.242Z,75.12
2023-04-13T00:38:11.610Z,75.15
2023-04-13T00:40:38.063Z,74.74
2023-04-13T00:43:05.699Z,74.99
2023-04-13T00:45:38.940Z,75.05
2023-04-13T00:48:09.744Z,74.99
2023-04-13T00:50:36.974Z,75.42
2023-04-13T00:53:06.850Z,76.27
2023-04-13T00:55:40.413Z,76.76
2023-04-13T00:58:07.898Z,77.62
2023-04-13T01:00:38.975Z,78.69
2023-04-13T01:03:05.600Z,78.84
2023-04-13T01:06:04.121Z,79.27
2023-04-13T01:08:36.965Z,80.99
2023-04-13T01:11:25.142Z,82.09
2023-04-13T01:14:07.900Z,83.00
2023-04-13T01:16:49.590Z,84.27
2023-04-13T01:19:32.581Z,84.90
2023-04-13T01:22:00.995Z,85.63
2023-04-13T01:24:40.702Z,85.73
2023-04-13T01:27:07.144Z,84.47
2023-04-13T01:29:36.272Z,84.52
2023-04-13T01:32:03.210Z,84.23
2023-04-13T01:34:30.053Z,84.22
2023-04-13T01:36:57.156Z,84.42
2023-04-13T01:39:25.654Z,84.13
2023-04-13T01:41:52.074Z,83.99
2023-04-13T01:44:18.605Z,83.35
2023-04-13T01:46:51.663Z,83.55
2023-04-13T01:49:22.925Z,83.42
2023-04-13T01:51:54.536Z,83.92
2023-04-13T01:54:25.665Z,83.52
2023-04-13T01:56:53.087Z,83.68
2023-04-13T01:59:21.037Z,83.53
2023-04-13T02:01:47.604Z,84.48
2023-04-13T02:04:14.630Z,83.53
2023-04-13T02:06:42.290Z,83.15
2023-04-13T02:09:09.211Z,82.87
2023-04-13T02:11:36.717Z,82.59
2023-04-13T02:14:04.012Z,81.05
2023-04-13T02:16:30.750Z,79.76
2023-04-13T02:18:58.388Z,78.92
2023-04-13T02:21:25.842Z,79.59
2023-04-13T02:23:55.502Z,78.61
2023-04-13T02:26:26.223Z,79.03
2023-04-13T02:28:53.411Z,78.52
2023-04-13T02:31:20.680Z,78.77
2023-04-13T02:33:47.820Z,78.47
2023-04-13T02:36:17.312Z,78.87
2023-04-13T02:38:44.080Z,78.40
2023-04-13T02:41:10.897Z,78.17
2023-04-13T02:43:37.371Z,78.33
2023-04-13T02:46:04.379Z,78.72
2023-04-13T02:48:30.864Z,80.01
2023-04-13T02:50:57.340Z,81.75
2023-04-13T02:53:27.398Z,83.04
2023-04-13T02:55:58.482Z,83.68
2023-04-13T02:58:25.396Z,84.28
2023-04-13T03:00:52.071Z,86.06
2023-04-13T03:03:20.487Z,85.80
2023-04-13T03:05:49.570Z,87.15
2023-04-13T03:08:17.370Z,88.57
2023-04-13T03:10:44.935Z,89.70
2023-04-13T03:13:11.493Z,89.88
2023-04-13T03:15:38.009Z,90.42
2023-04-13T03:18:04.551Z,90.17
2023-04-13T03:20:31.195Z,89.23
2023-04-13T03:22:58.775Z,87.14
2023-04-13T03:25:26.061Z,85.24
2023-04-13T03:27:52.516Z,83.06
2023-04-13T03:30:19.096Z,81.46
2023-04-13T03:32:45.663Z,81.08
2023-04-13T03:35:12.199Z,82.14
2023-04-13T03:37:42.961Z,81.55
2023-04-13T03:40:12.981Z,81.28
2023-04-13T03:42:39.509Z,80.86
2023-04-13T03:45:06.646Z,80.62
2023-04-13T03:47:33.493Z,80.43
2023-04-13T03:50:00.105Z,81.51
2023-04-13T03:52:31.147Z,81.93
2023-04-13T03:55:01.911Z,81.91
2023-04-13T03:57:29.174Z,81.83
2023-04-13T03:59:59.219Z,81.87
2023-04-13T04:02:28.564Z,81.21
2023-04-13T04:04:55.136Z,80.28
2023-04-13T04:07:23.756Z,79.66
2023-04-13T04:09:50.447Z,80.39
2023-04-13T04:12:17.072Z,80.22
2023-04-13T04:14:43.515Z,80.59
2023-04-13T04:17:09.930Z,80.23
2023-04-13T04:19:37.120Z,80.42
2023-04-13T04:22:04.208Z,80.71
2023-04-13T04:24:30.667Z,79.61
2023-04-13T04:27:02.669Z,78.62
2023-04-13T04:29:34.768Z,79.51
2023-04-13T04:32:03.273Z,80.01
2023-04-13T04:34:31.647Z,79.83
2023-04-13T04:37:03.249Z,79.99
2023-04-13T04:39:35.272Z,78.93
2023-04-13T04:42:04.579Z,79.75
2023-04-13T04:44:31.272Z,81.31
2023-04-13T04:47:00.544Z,80.11
2023-04-13T04:49:29.566Z,80.82
2023-04-13T04:51:58.330Z,80.06
2023-04-13T04:54:26.028Z,80.68
2023-04-13T04:56:53.586Z,81.23
2023-04-13T04:59:20.096Z,82.15
2023-04-13T05:01:47.167Z,83.32
2023-04-13T05:04:13.955Z,84.33
2023-04-13T05:06:42.097Z,85.56
2023-04-13T05:09:09.048Z,87.77
2023-04-13T05:11:36.434Z,88.38
2023-04-13T05:14:03.106Z,89.09
2023-04-13T05:16:34.413Z,90.13
2023-04-13T05:19:01.752Z,89.89
2023-04-13T05:21:32.065Z,89.99
2023-04-13T05:24:01.612Z,89.88
2023-04-13T05:26:32.457Z,89.30
2023-04-13T05:29:03.100Z,89.26
2023-04-13T05:31:30.562Z,89.13
2023-04-13T05:33:57.016Z,89.04
2023-04-13T05:36:23.451Z,88.41
2023-04-13T05:38:50.118Z,87.54
2023-04-13T05:41:16.602Z,86.34
2023-04-13T05:43:44.416Z,87.43
2023-04-13T05:46:11.627Z,84.27
2023-04-13T05:48:38.561Z,83.58
2023-04-13T05:51:05.881Z,82.11
2023-04-13T05:53:32.402Z,81.08
2023-04-13T05:56:03.133Z,81.56
2023-04-13T05:58:31.574Z,81.21
2023-04-13T06:01:00.136Z,79.84
2023-04-13T06:03:27.569Z,78.24
2023-04-13T06:05:54.866Z,78.22
2023-04-13T06:08:21.696Z,78.45
2023-04-13T06:10:48.978Z,78.36
2023-04-13T06:13:15.676Z,77.76
2023-04-13T06:15:42.297Z,78.20
2023-04-13T06:18:08.798Z,78.72
2023-04-13T06:20:35.956Z,77.54
2023-04-13T06:23:02.436Z,78.11
2023-04-13T06:25:31.808Z,77.54
2023-04-13T06:28:01.900Z,77.16
2023-04-13T06:30:33.533Z,76.41
2023-04-13T06:33:00.646Z,76.76
2023-04-13T06:35:27.260Z,76.25
2023-04-13T06:37:54.310Z,76.50
2023-04-13T06:40:22.987Z,76.26
2023-04-13T06:42:49.423Z,76.70
2023-04-13T06:45:16.240Z,75.35
2023-04-13T06:47:43.576Z,75.49
2023-04-13T06:50:13.837Z,74.51
2023-04-13T06:52:43.468Z,74.11
2023-04-13T06:55:10.133Z,72.74
2023-04-13T06:57:36.629Z,71.10
2023-04-13T07:00:12.624Z,71.34
2023-04-13T07:02:48.983Z,71.28
2023-04-13T07:05:15.895Z,69.04
2023-04-13T07:07:42.440Z,69.05
2023-04-13T07:10:09.357Z,68.60
2023-04-13T07:12:36.075Z,69.12
2023-04-13T07:15:02.627Z,69.13
2023-04-13T07:17:33.776Z,68.67
2023-04-13T07:20:04.492Z,69.36
2023-04-13T07:22:35.518Z,69.13
2023-04-13T07:25:02.343Z,69.96
2023-04-13T07:27:33.905Z,69.59
2023-04-13T07:30:01.640Z,68.91
2023-04-13T07:32:31.324Z,68.29
2023-04-13T07:35:01.620Z,67.32
2023-04-13T07:37:31.727Z,66.24
2023-04-13T07:39:58.773Z,64.88
2023-04-13T07:42:25.387Z,62.97
2023-04-13T07:44:55.934Z,61.85
2023-04-13T07:47:22.502Z,61.18
2023-04-13T07:49:49.090Z,59.93
2023-04-13T07:52:15.747Z,63.16
2023-04-13T07:54:42.287Z,64.34
2023-04-13T07:57:08.733Z,66.56
2023-04-13T07:59:35.288Z,67.06
2023-04-13T08:02:01.921Z,68.95
2023-04-13T08:04:30.101Z,66.32
2023-04-13T08:06:57.169Z,68.22
2023-04-13T08:09:23.595Z,69.14
2023-04-13T08:11:50.202Z,68.77
2023-04-13T08:14:16.726Z,65.09
2023-04-13T08:16:43.436Z,66.04
2023-04-13T08:19:09.998Z,62.97
2023-04-13T08:21:38.621Z,62.80
2023-04-13T08:24:05.546Z,60.04
2023-04-13T08:26:32.144Z,61.65
2023-04-13T08:29:00.733Z,61.95
2023-04-13T08:31:29.171Z,63.57
2023-04-13T08:33:57.604Z,62.44
2023-04-13T08:36:24.545Z,60.42
2023-04-13T08:38:51.036Z,60.41
2023-04-13T08:41:17.817Z,61.33
2023-04-13T08:43:46.840Z,60.34
2023-04-13T08:46:19.417Z,59.90
2023-04-13T08:48:54.175Z,57.34
2023-04-13T08:51:22.436Z,55.63
2023-04-13T08:53:49.309Z,56.33
2023-04-13T08:56:16.662Z,53.34
2023-04-13T08:58:45.179Z,54.54
2023-04-13T09:01:13.614Z,53.83
2023-04-13T09:04:10.624Z,56.03
2023-04-13T09:06:41.385Z,56.58
2023-04-13T09:09:15.833Z,53.90
2023-04-13T09:11:43.364Z,54.04
2023-04-13T09:14:10.322Z,52.28
2023-04-13T09:16:41.541Z,51.49
2023-04-13T09:19:08.725Z,52.14
2023-04-13T09:21:40.910Z,51.20
2023-04-13T09:24:08.449Z,54.73
2023-04-13T09:26:46.412Z,57.77
2023-04-13T09:29:15.030Z,60.55
2023-04-13T09:31:43.716Z,61.41
2023-04-13T09:34:12.021Z,60.42
2023-04-13T09:36:49.498Z,62.14
2023-04-13T09:39:30.544Z,59.91
2023-04-13T09:42:00.061Z,59.46
2023-04-13T09:44:34.867Z,60.56
2023-04-13T09:47:06.086Z,59.49
2023-04-13T09:49:40.227Z,57.75
2023-04-13T09:52:18.115Z,57.07
2023-04-13T09:54:49.350Z,57.83
2023-04-13T09:57:26.338Z,57.06
2023-04-13T09:59:55.709Z,55.05
2023-04-13T10:02:22.520Z,52.38
2023-04-13T10:04:49.703Z,48.95
2023-04-13T10:07:16.414Z,49.24
2023-04-13T10:09:45.771Z,47.15
2023-04-13T10:12:14.706Z,46.54
2023-04-13T10:14:44.189Z,48.05
2023-04-13T10:17:24.084Z,45.00
2023-04-13T10:19:53.110Z,43.73
2023-04-13T10:22:22.869Z,46.07
2023-04-13T10:24:52.639Z,48.44
2023-04-13T10:27:20.969Z,46.57
2023-04-13T10:29:47.988Z,51.77
2023-04-13T10:32:26.720Z,56.79
2023-04-13T10:34:54.732Z,59.00
2023-04-13T10:37:37.118Z,63.80
2023-04-13T10:40:06.348Z,64.44
2023-04-13T10:45:26.621Z,62.29
2023-04-13T10:47:54.502Z,60.96
2023-04-13T10:50:22.813Z,57.10
2023-04-13T10:53:05.527Z,51.24
2023-04-13T10:55:33.059Z,47.86
2023-04-13T10:58:01.795Z,45.77
2023-04-13T11:00:45.537Z,40.96
2023-04-13T11:03:17.630Z,41.36
2023-04-13T11:05:57.826Z,39.10
2023-04-13T11:08:24.664Z,37.99
2023-04-13T11:10:53.190Z,37.57
2023-04-13T11:13:20.456Z,38.63
2023-04-13T11:15:48.235Z,41.43
2023-04-13T11:18:25.686Z,39.00
2023-04-13T11:20:52.449Z,39.50
2023-04-13T11:23:20.028Z,37.01
2023-04-13T11:26:04.839Z,37.14
2023-04-13T11:28:42.447Z,33.32
2023-04-13T11:31:09.341Z,34.89
2023-04-13T11:33:37.886Z,33.51
2023-04-13T11:36:07.771Z,36.11
2023-04-13T11:38:34.394Z,34.10
2023-04-13T11:41:15.894Z,34.43
2023-04-13T11:43:46.148Z,36.95
2023-04-13T11:46:15.227Z,39.43
2023-04-13T11:48:42.420Z,43.37
2023-04-13T11:51:09.877Z,46.93
2023-04-13T11:53:38.720Z,43.91
2023-04-13T11:56:06.186Z,44.80
2023-04-13T11:58:37.365Z,43.67
2023-04-13T12:01:13.802Z,41.12
2023-04-13T12:03:53.435Z,38.33
2023-04-13T12:06:29.008Z,38.45
2023-04-13T12:09:09.774Z,40.56
2023-04-13T12:11:42.382Z,44.08
2023-04-13T12:19:24.094Z,37.65
2023-04-13T12:21:57.466Z,34.84
2023-04-13T12:24:37.634Z,35.39
2023-04-13T12:29:41.010Z,32.53
2023-04-13T12:32:14.240Z,29.91
2023-04-13T12:34:41.836Z,30.51
2023-04-13T12:37:08.279Z,31.44
2023-04-13T12:39:34.744Z,29.95
2023-04-13T12:42:02.739Z,31.39
2023-04-13T12:44:30.387Z,31.65
2023-04-13T12:46:59.079Z,35.12
2023-04-13T12:49:25.917Z,36.80
2023-04-13T12:51:52.370Z,37.30
2023-04-13T12:54:18.852Z,38.05
2023-04-13T12:56:45.275Z,36.75
2023-04-13T12:59:11.729Z,35.28
2023-04-13T13:01:38.420Z,30.78
2023-04-13T13:04:06.116Z,31.83
2023-04-13T13:06:34.626Z,31.46
2023-04-13T13:09:01.367Z,31.38
2023-04-13T13:11:28.430Z,28.93
2023-04-13T13:13:55.174Z,31.05
2023-04-13T13:16:21.873Z,30.00
2023-04-13T13:18:51.348Z,30.57
2023-04-13T13:21:18.725Z,32.27
2023-04-13T13:23:45.692Z,34.84
2023-04-13T13:28:42.465Z,36.90
2023-04-13T13:31:09.098Z,38.10
2023-04-13T13:33:36.320Z,38.04
2023-04-13T13:36:02.838Z,41.34
2023-04-13T13:38:29.442Z,38.46
2023-04-13T13:40:56.038Z,37.94
2023-04-13T13:43:22.595Z,37.50
2023-04-13T13:45:49.210Z,36.78
2023-04-13T13:48:15.885Z,34.99
2023-04-13T13:50:42.464Z,31.86
2023-04-13T13:53:09.074Z,30.05
2023-04-13T13:55:38.496Z,31.08
2023-04-13T13:58:07.514Z,30.19
2023-04-13T14:00:35.681Z,33.27
2023-04-13T14:03:02.252Z,34.73
2023-04-13T14:05:28.850Z,35.25
2023-04-13T14:07:55.367Z,35.55
2023-04-13T14:10:21.860Z,36.85
2023-04-13T14:12:50.550Z,37.41
2023-04-13T14:15:17.873Z,39.96
2023-04-13T14:17:50.193Z,39.52
2023-04-13T14:20:22.322Z,43.24
2023-04-13T14:22:48.782Z,42.97
2023-04-13T14:25:15.328Z,43.59
2023-04-13T14:27:41.769Z,45.06
2023-04-13T14:30:09.345Z,45.82
2023-04-13T14:32:35.890Z,46.04
2023-04-13T14:35:03.022Z,45.30
2023-04-13T14:37:29.539Z,47.65
2023-04-13T14:39:56.084Z,47.76
2023-04-13T14:42:24.545Z,48.40
2023-04-13T14:44:51.858Z,49.79
2023-04-13T14:47:19.621Z,49.15
2023-04-13T14:49:47.429Z,50.36
2023-04-13T14:52:15.137Z,50.44
2023-04-13T14:54:41.913Z,49.46
2023-04-13T14:57:09.408Z,46.20
2023-04-13T14:59:35.964Z,43.25
2023-04-13T15:02:02.539Z,39.73
2023-04-13T15:04:29.710Z,37.40
2023-04-13T15:06:56.350Z,37.02
2023-04-13T15:09:22.872Z,39.63
2023-04-13T15:11:49.431Z,38.42
2023-04-13T15:14:16.335Z,38.69
2023-04-13T15:16:42.967Z,39.63
2023-04-13T15:19:09.509Z,38.75
2023-04-13T15:21:36.218Z,39.14
2023-04-13T15:24:02.777Z,38.97
2023-04-13T15:26:29.745Z,37.23
2023-04-13T15:28:56.172Z,36.79
2023-04-13T15:31:22.795Z,38.04
2023-04-13T15:33:49.300Z,38.57
2023-04-13T15:36:16.141Z,38.72
2023-04-13T15:38:43.190Z,37.11
2023-04-13T15:41:13.719Z,37.49
2023-04-13T15:43:41.502Z,38.47
2023-04-13T15:46:09.035Z,38.36
2023-04-13T15:48:35.734Z,38.50
2023-04-13T15:51:02.331Z,40.19
2023-04-13T15:53:29.058Z,41.06
2023-04-13T15:55:55.739Z,44.48
2023-04-13T15:58:22.359Z,46.73
2023-04-13T16:01:10.125Z,48.00
2023-04-13T16:03:37.755Z,49.36
2023-04-13T16:06:04.617Z,49.48
2023-04-13T16:08:31.359Z,51.58
2023-04-13T16:10:58.088Z,52.47
2023-04-13T16:13:41.524Z,53.42
2023-04-13T16:16:15.065Z,53.09
2023-04-13T16:18:44.274Z,51.52
2023-04-13T16:21:10.997Z,52.21
2023-04-13T16:23:38.100Z,52.12
2023-04-13T16:26:05.038Z,52.52
2023-04-13T16:28:31.698Z,54.23
2023-04-13T16:30:58.646Z,54.64
2023-04-13T16:34:24.411Z,53.70
2023-04-13T16:36:55.013Z,54.12
2023-04-13T16:39:41.334Z,53.65
2023-04-13T16:42:07.916Z,54.16
2023-04-13T16:44:34.411Z,54.38
2023-04-13T16:47:01.069Z,55.79
2023-04-13T16:49:27.910Z,54.95
2023-04-13T16:51:54.353Z,55.45
2023-04-13T16:54:21.139Z,54.83
2023-04-13T16:56:47.777Z,52.58
2023-04-13T16:59:17.462Z,53.59
2023-04-13T17:01:46.757Z,52.63
2023-04-13T17:04:15.771Z,52.86
2023-04-13T17:10:25.887Z,53.90
2023-04-13T17:12:52.697Z,59.90
2023-04-13T17:15:20.094Z,61.61
2023-04-13T17:17:52.793Z,61.62
2023-04-13T17:20:19.524Z,60.96
2023-04-13T17:23:08.683Z,61.15
2023-04-13T17:25:40.908Z,60.38
2023-04-13T17:28:07.668Z,59.59
2023-04-13T17:30:34.152Z,60.50
2023-04-13T17:33:00.645Z,61.55
2023-04-13T17:35:27.159Z,63.37
2023-04-13T17:38:49.066Z,64.36
2023-04-13T17:41:17.491Z,66.66
2023-04-13T17:43:54.330Z,68.20
2023-04-13T17:46:21.146Z,68.48
2023-04-13T17:48:48.845Z,66.76
2023-04-13T17:51:49.315Z,68.06
2023-04-13T17:54:20.145Z,70.37
2023-04-13T17:56:50.232Z,71.11
2023-04-13T18:00:05.182Z,72.03
2023-04-13T18:02:31.857Z,72.57
2023-04-13T18:05:21.428Z,72.73
2023-04-13T18:08:20.620Z,74.15
2023-04-13T18:10:49.697Z,75.58
2023-04-13T18:13:18.982Z,76.03
2023-04-13T18:15:49.077Z,75.29
2023-04-13T18:18:24.467Z,75.84
2023-04-13T18:20:52.172Z,76.18
2023-04-13T18:23:21.813Z,76.40
2023-04-13T18:25:52.636Z,75.10
2023-04-13T18:28:20.610Z,75.38
2023-04-13T18:30:47.238Z,75.10
2023-04-13T18:33:13.765Z,75.95
2023-04-13T18:35:45.545Z,76.22
2023-04-13T18:38:12.555Z,75.62
2023-04-13T18:40:43.359Z,75.96
2023-04-13T18:43:09.831Z,75.98
2023-04-13T18:45:36.283Z,75.97
2023-04-13T18:48:25.943Z,76.15
2023-04-13T18:50:52.502Z,77.08
2023-04-13T18:53:19.720Z,78.19
2023-04-13T18:55:51.709Z,79.75
2023-04-13T18:58:22.176Z,80.36
2023-04-13T19:00:48.773Z,80.80
2023-04-13T19:03:15.688Z,81.05
2023-04-13T19:05:42.301Z,81.50
2023-04-13T19:08:10.412Z,82.50
2023-04-13T19:11:00.364Z,83.38
2023-04-13T19:13:26.894Z,83.55
2023-04-13T19:15:56.973Z,83.83
2023-04-13T19:18:24.978Z,82.59
2023-04-13T19:21:00.545Z,84.21
2023-04-13T19:23:40.141Z,84.78
2023-04-13T19:26:07.196Z,89.14
2023-04-13T19:28:33.697Z,82.18
2023-04-13T19:31:00.232Z,80.55
2023-04-13T19:33:26.711Z,80.32
2023-04-13T19:35:53.183Z,78.71
2023-04-13T19:38:21.141Z,80.57
2023-04-13T19:40:47.657Z,77.66
2023-04-13T19:43:23.689Z,80.17
2023-04-13T19:45:52.701Z,80.89
2023-04-13T19:48:19.160Z,80.95
2023-04-13T19:50:45.595Z,83.18
2023-04-13T19:53:12.176Z,84.20
2023-04-13T19:55:38.657Z,86.94
2023-04-13T19:58:05.209Z,92.60
2023-04-13T20:00:32.104Z,96.86
2023-04-13T20:03:03.272Z,100.00
2023-04-13T20:05:32.684Z,100.00
2023-04-13T20:07:59.275Z,100.00
2023-04-13T20:10:25.804Z,100.00
2023-04-13T20:12:55.300Z,100.00
2023-04-13T20:15:23.131Z,100.00
2023-04-13T20:17:51.877Z,100.00
2023-04-13T20:20:20.598Z,100.00
2023-04-13T20:22:48.472Z,100.00
2023-04-13T20:25:14.947Z,100.00
2023-04-13T20:27:42.317Z,100.00
2023-04-13T20:30:10.066Z,100.00
2023-04-13T20:32:36.530Z,100.00
2023-04-13T20:35:03.120Z,100.00
2023-04-13T20:37:29.550Z,100.00
2023-04-13T20:39:57.397Z,100.00
2023-04-13T20:42:24.178Z,100.00
2023-04-13T20:44:57.778Z,100.00
2023-04-13T20:47:28.609Z,100.00
2023-04-13T20:49:57.343Z,100.00
2023-04-13T20:52:25.883Z,100.00
2023-04-13T20:54:54.603Z,99.76
2023-04-13T20:57:21.593Z,99.74
2023-04-13T20:59:49.023Z,99.33
2023-04-13T21:02:15.876Z,98.85
2023-04-13T21:04:42.624Z,98.78
2023-04-13T21:07:12.914Z,98.07
2023-04-13T21:09:39.927Z,97.59
2023-04-13T21:12:06.716Z,97.56
2023-04-13T21:14:33.626Z,96.99
2023-04-13T21:17:00.048Z,96.57
2023-04-13T21:19:27.663Z,95.48
2023-04-13T21:21:57.341Z,95.55
2023-04-13T21:24:26.092Z,95.72
2023-04-13T21:26:52.552Z,96.58
2023-04-13T21:29:20.106Z,96.47
2023-04-13T21:31:47.636Z,96.54
2023-04-13T21:34:14.130Z,95.79
2023-04-13T21:39:13.509Z,96.12
2023-04-13T21:41:41.417Z,96.57
2023-04-13T21:44:16.197Z,96.10
2023-04-13T21:46:52.863Z,96.57
2023-04-13T21:49:19.424Z,98.01
2023-04-13T21:51:45.996Z,99.13
2023-04-13T21:54:12.440Z,99.71
2023-04-13T21:56:38.891Z,100.00
2023-04-13T21:59:05.463Z,100.00
2023-04-13T22:01:31.928Z,100.00
2023-04-13T22:03:58.676Z,100.00
2023-04-13T22:06:27.770Z,100.00
2023-04-13T22:08:54.978Z,99.19
2023-04-13T22:11:21.537Z,99.37
2023-04-13T22:13:48.005Z,99.08
2023-04-13T22:16:14.712Z,99.21
2023-04-13T22:18:41.751Z,98.55
2023-04-13T22:21:08.252Z,97.78
2023-04-13T22:23:34.713Z,96.52
2023-04-13T22:26:01.626Z,94.73
2023-04-13T22:28:31.865Z,95.74
2023-04-13T22:31:08.601Z,96.72
2023-04-13T22:33:40.362Z,97.41
2023-04-13T22:36:16.504Z,99.71
2023-04-13T22:38:42.961Z,98.78
2023-04-13T22:41:09.807Z,99.73
2023-04-13T22:43:36.301Z,100.00
2023-04-13T22:46:03.102Z,100.00
2023-04-13T22:48:32.946Z,100.00
2023-04-13T22:51:03.668Z,100.00
2023-04-13T22:53:31.201Z,100.00
2023-04-13T22:55:57.830Z,100.00
2023-04-13T22:58:24.366Z,100.00
2023-04-13T23:00:51.091Z,100.00
2023-04-13T23:03:17.909Z,100.00
2023-04-13T23:05:44.604Z,100.00
2023-04-13T23:08:11.499Z,100.00
2023-04-13T23:10:37.931Z,100.00
2023-04-13T23:13:04.766Z,100.00
2023-04-13T23:15:31.665Z,100.00
2023-04-13T23:18:01.771Z,100.00
2023-04-13T23:20:28.463Z,100.00
2023-04-13T23:22:55.903Z,97.97
2023-04-13T23:25:22.398Z,100.00
2023-04-13T23:27:48.850Z,99.68
2023-04-13T23:30:16.210Z,100.00
2023-04-13T23:32:42.793Z,99.67
2023-04-13T23:35:09.514Z,99.62
2023-04-13T23:37:35.970Z,98.31
2023-04-13T23:40:06.142Z,98.51
2023-04-13T23:42:35.172Z,98.24
2023-04-13T23:45:05.816Z,99.65
2023-04-13T23:47:36.004Z,100.00
2023-04-13T23:50:04.555Z,100.00
2023-04-13T23:52:31.965Z,99.96
2023-04-13T23:54:58.480Z,98.95
2023-04-13T23:57:24.932Z,98.97
2023-04-13T23:59:57.554Z,98.60
